weather.gov     
National Weather Service

Terminal Aerodrome Forecast
NWS Homepage
This page is being discontinued on March 12, 2014.
The same data is available at this site. Please update your bookmarks.
Thank you, and we apologize for the inconvenience.
Please send an email to SR-SRH.Webmaster@noaa.gov with any concerns.


Current Version
Previous Version:    01  02  03  04  05  06  07  08  09  10  11  12  13  14  15  16  17  18  19  20  21  22  23  24  25  26  27  28  29  
[Printable]
474
FTUS46 KSGX 152300
TAFONT
TAF
KONT 152327Z 1600/1706 26011G18KT P6SM SKC
     FM160400 VRB04KT P6SM SKC
     FM161100 VRB04KT 5SM BR SKC
      TEMPO 1612/1615 2SM BR SCT004
     FM161700 VRB04KT P6SM SKC
     FM162100 26011G18KT P6SM SKC
     FM170400 VRB04KT P6SM SKC=


U.S. Dept. of Commerce
NOAA National Weather Service
1325 East West Highway
Silver Spring, MD 20910
E-mail: w-nws.webmaster@noaa.gov
Page last modified: May 16, 2007
NATIONAL WEATHER SERVICE: for Safety, for Work, for Fun - FOR LIFE